Accueil
METAR-TAF:

METAR-TAF

Aéroports :

Aéroport de Vérone

Vérone, Italie

latitude: 45-23N, longitude: 010-52E, altitude: 67 m

Observation

Le bulletin a été fait il y a 39 minutes, à 15:20 UTC
Vent 4 kt de ouest/sud-ouest
Température 17°C
Humidité 59%
Pression 1027 hPa
Visibilité: 7000 m

METAR: LIPX 191520Z 25004KT 7000 NSC 17/09 Q1027

Heure: 17:59 (15:59 UTC)

Prévision

Le bulletin a été fait il y a 4 heures et 59 minutes, à 11:00 UTC
Prévision valable du 19 à 12 UTC au 20 à 12 UTC
Vent 5 kt de direction variable
Visibilité: 7000 m
Evoluant progressivement
du 19 à 18 UTC au 19 à 20 UTC
Visibilité: 2000 m
brume
Evoluant progressivement
du 20 à 07 UTC au 20 à 09 UTC
Visibilité: 6000 m

TAF: LIPX 191100Z 1912/2012 VRB05KT 7000 NSC BECMG 1918/1920 2000 BR BECMG 2007/2009 6000

Observations et prévisions météorologiques de plus de 4000 aéroports (messages METAR et TAF).

Les stations disponibles sont représentées par des disques jaunes et rouges sur la carte.

Passer la souris dessus pour voir le nom de la station.

Cliquer dessus pour voir les observations et prévisions météorologiques.

Pour changer de carte: cliquez sur les boutons verts avec une croix noire pour zoomer, sur le bouton vert avec un tiret pour effectuer un zoom arrière, ou sur les flèches vertes pour les cartes adjacentes.


METAR-TAF: